createdAt,value
2023-02-05T00:00:00.626Z,5.07
2023-02-05T00:02:27.071Z,10.32
2023-02-05T00:04:53.576Z,7.82
2023-02-05T00:07:20.007Z,7.15
2023-02-05T00:09:46.482Z,6.40
2023-02-05T00:12:12.946Z,6.78
2023-02-05T00:14:39.388Z,4.45
2023-02-05T00:17:06.029Z,5.07
2023-02-05T00:19:32.527Z,10.70
2023-02-05T00:21:58.965Z,10.90
2023-02-05T00:24:25.434Z,8.52
2023-02-05T00:26:51.855Z,9.23
2023-02-05T00:29:18.560Z,9.48
2023-02-05T00:31:45.096Z,10.00
2023-02-05T00:34:11.649Z,5.95
2023-02-05T00:36:38.132Z,9.63
2023-02-05T00:39:04.672Z,8.63
2023-02-05T00:41:31.330Z,7.78
2023-02-05T00:43:57.794Z,9.90
2023-02-05T00:46:24.270Z,8.48
2023-02-05T00:48:50.743Z,7.20
2023-02-05T00:51:17.269Z,7.40
2023-02-05T00:53:43.705Z,10.02
2023-02-05T00:56:10.226Z,6.88
2023-02-05T00:58:36.911Z,12.05
2023-02-05T01:01:04.342Z,7.75
2023-02-05T01:03:31.191Z,8.20
2023-02-05T01:05:57.786Z,13.70
2023-02-05T01:08:24.425Z,11.38
2023-02-05T01:10:52.259Z,11.13
2023-02-05T01:13:19.198Z,13.73
2023-02-05T01:15:46.196Z,10.18
2023-02-05T01:18:13.121Z,9.48
2023-02-05T01:20:40.772Z,11.00
2023-02-05T01:23:07.513Z,11.50
2023-02-05T01:25:34.271Z,11.63
2023-02-05T01:28:01.106Z,14.60
2023-02-05T01:30:27.562Z,14.50
2023-02-05T01:32:54.006Z,11.43
2023-02-05T01:35:20.646Z,9.52
2023-02-05T01:37:47.111Z,8.70
2023-02-05T01:40:17.276Z,10.52
2023-02-05T01:42:44.029Z,13.43
2023-02-05T01:45:22.650Z,10.68
2023-02-05T01:47:51.104Z,11.32
2023-02-05T01:50:21.781Z,8.50
2023-02-05T01:52:48.643Z,10.20
2023-02-05T01:55:15.940Z,12.73
2023-02-05T01:57:42.631Z,10.23
2023-02-05T02:00:10.508Z,10.57
2023-02-05T02:02:38.068Z,14.15
2023-02-05T02:08:45.411Z,13.00
2023-02-05T02:11:17.150Z,13.00
2023-02-05T02:13:45.438Z,9.95
2023-02-05T02:16:12.559Z,12.48
2023-02-05T02:18:39.436Z,10.38
2023-02-05T02:21:14.832Z,10.20
2023-02-05T02:24:02.496Z,10.07
2023-02-05T02:26:52.926Z,15.57
2023-02-05T02:29:25.054Z,15.95
2023-02-05T02:32:00.055Z,13.70
2023-02-05T02:34:36.923Z,9.88
2023-02-05T02:37:11.604Z,13.00
2023-02-05T02:39:41.440Z,12.18
2023-02-05T02:42:29.940Z,14.38
2023-02-05T02:45:00.203Z,12.75
2023-02-05T02:47:31.534Z,14.80
2023-02-05T02:52:33.367Z,15.20
2023-02-05T02:55:05.452Z,14.27
2023-02-05T02:57:36.480Z,13.25
2023-02-05T03:00:08.929Z,13.63
2023-02-05T03:02:37.632Z,9.55
2023-02-05T03:05:11.452Z,9.98
2023-02-05T03:07:42.683Z,10.07
2023-02-05T03:10:14.608Z,8.85
2023-02-05T03:12:41.089Z,7.68
2023-02-05T03:15:08.980Z,8.75
2023-02-05T03:17:36.654Z,13.32
2023-02-05T03:20:08.168Z,7.75
2023-02-05T03:22:34.593Z,7.55
2023-02-05T03:25:02.886Z,7.30
2023-02-05T03:27:29.467Z,9.63
2023-02-05T03:29:56.936Z,10.65
2023-02-05T03:33:00.729Z,7.72
2023-02-05T03:35:49.614Z,11.38
2023-02-05T03:38:19.126Z,7.30
2023-02-05T03:40:52.539Z,14.20
2023-02-05T03:43:30.940Z,13.80
2023-02-05T03:46:07.341Z,13.00
2023-02-05T03:48:59.396Z,12.88
2023-02-05T03:51:53.249Z,6.88
2023-02-05T03:54:35.009Z,11.35
2023-02-05T03:57:11.116Z,7.88
2023-02-05T03:59:38.820Z,9.63
2023-02-05T04:02:05.983Z,8.27
2023-02-05T04:04:32.411Z,11.20
2023-02-05T04:06:58.867Z,7.85
2023-02-05T04:09:25.432Z,6.90
2023-02-05T04:11:51.982Z,9.93
2023-02-05T04:14:18.422Z,8.43
2023-02-05T04:16:44.904Z,7.20
2023-02-05T04:19:11.511Z,10.38
2023-02-05T04:21:38.166Z,6.95
2023-02-05T04:24:05.046Z,8.88
2023-02-05T04:26:31.627Z,7.82
2023-02-05T04:28:58.090Z,4.57
2023-02-05T04:31:24.601Z,13.35
2023-02-05T04:33:51.115Z,8.88
2023-02-05T04:36:17.593Z,8.80
2023-02-05T04:38:44.067Z,10.00
2023-02-05T04:41:10.647Z,5.75
2023-02-05T04:43:37.220Z,5.15
2023-02-05T04:46:07.510Z,7.13
2023-02-05T04:48:34.244Z,6.45
2023-02-05T04:51:00.769Z,7.13
2023-02-05T04:53:27.203Z,6.53
2023-02-05T04:55:54.905Z,5.78
2023-02-05T04:58:21.513Z,4.90
2023-02-05T05:00:48.043Z,8.60
2023-02-05T05:03:14.582Z,7.50
2023-02-05T05:05:41.044Z,7.60
2023-02-05T05:08:07.503Z,9.48
2023-02-05T05:10:33.937Z,8.65
2023-02-05T05:13:00.486Z,8.98
2023-02-05T05:15:26.997Z,6.95
2023-02-05T05:17:53.433Z,6.30
2023-02-05T05:20:19.949Z,7.45
2023-02-05T05:22:46.471Z,7.18
2023-02-05T05:25:13.074Z,11.20
2023-02-05T05:27:39.549Z,7.55
2023-02-05T05:30:06.405Z,9.60
2023-02-05T05:32:32.866Z,6.93
2023-02-05T05:34:59.432Z,8.38
2023-02-05T05:37:25.926Z,9.35
2023-02-05T05:40:10.833Z,10.35
2023-02-05T05:42:56.815Z,10.70
2023-02-05T05:45:23.514Z,8.15
2023-02-05T05:47:50.003Z,8.43
2023-02-05T05:50:16.590Z,8.38
2023-02-05T05:52:43.053Z,6.57
2023-02-05T05:55:09.604Z,7.78
2023-02-05T05:57:36.014Z,8.45
2023-02-05T06:00:02.923Z,7.15
2023-02-05T06:02:29.408Z,8.45
2023-02-05T06:04:55.888Z,11.75
2023-02-05T06:07:22.477Z,8.55
2023-02-05T06:09:48.946Z,10.98
2023-02-05T06:12:15.650Z,11.18
2023-02-05T06:14:42.061Z,8.35
2023-02-05T06:17:08.653Z,9.10
2023-02-05T06:19:35.163Z,8.68
2023-02-05T06:22:01.744Z,10.38
2023-02-05T06:24:30.794Z,13.20
2023-02-05T06:26:57.501Z,15.38
2023-02-05T06:29:24.016Z,7.07
2023-02-05T06:31:51.649Z,6.82
2023-02-05T06:34:18.134Z,9.52
2023-02-05T06:36:44.570Z,10.57
2023-02-05T06:39:12.223Z,13.23
2023-02-05T06:41:38.660Z,12.77
2023-02-05T06:44:05.234Z,5.30
2023-02-05T06:46:31.749Z,11.88
2023-02-05T06:48:58.225Z,5.03
2023-02-05T06:51:24.831Z,12.02
2023-02-05T06:53:52.604Z,9.20
2023-02-05T06:56:20.273Z,8.68
2023-02-05T06:58:46.699Z,7.18
2023-02-05T07:01:13.127Z,13.10
2023-02-05T07:03:39.618Z,9.30
2023-02-05T07:06:06.719Z,8.63
2023-02-05T07:08:34.492Z,10.30
2023-02-05T07:11:01.600Z,8.63
2023-02-05T07:13:29.652Z,8.85
2023-02-05T07:15:56.105Z,10.93
2023-02-05T07:18:22.620Z,8.80
2023-02-05T07:20:49.206Z,8.60
2023-02-05T07:23:15.990Z,10.93
2023-02-05T07:25:42.520Z,15.60
2023-02-05T07:28:09.291Z,8.07
2023-02-05T07:30:36.154Z,7.38
2023-02-05T07:33:03.606Z,6.57
2023-02-05T07:35:31.657Z,5.68
2023-02-05T07:37:58.476Z,12.13
2023-02-05T07:40:25.242Z,10.90
2023-02-05T07:42:51.690Z,6.45
2023-02-05T07:45:18.309Z,8.65
2023-02-05T07:47:44.976Z,14.93
2023-02-05T07:50:11.415Z,10.50
2023-02-05T07:52:37.864Z,10.30
2023-02-05T07:55:04.506Z,14.15
2023-02-05T07:57:30.943Z,7.60
2023-02-05T07:59:57.634Z,8.68
2023-02-05T08:02:24.706Z,13.70
2023-02-05T08:04:51.206Z,9.80
2023-02-05T08:07:17.957Z,12.68
2023-02-05T08:09:44.407Z,13.73
2023-02-05T08:12:10.855Z,12.57
2023-02-05T08:14:37.363Z,10.60
2023-02-05T08:17:06.129Z,13.80
2023-02-05T08:19:32.567Z,7.30
2023-02-05T08:21:59.058Z,8.70
2023-02-05T08:24:25.628Z,8.77
2023-02-05T08:26:52.163Z,11.30
2023-02-05T08:29:18.794Z,13.50
2023-02-05T08:31:45.287Z,8.50
2023-02-05T08:34:11.793Z,9.07
2023-02-05T08:36:38.401Z,7.97
2023-02-05T08:39:04.837Z,7.63
2023-02-05T08:41:31.277Z,14.57
2023-02-05T08:43:57.780Z,11.80
2023-02-05T08:46:28.193Z,12.77
2023-02-05T08:48:58.144Z,10.25
2023-02-05T08:51:24.662Z,10.65
2023-02-05T08:53:51.213Z,7.82
2023-02-05T08:56:19.950Z,13.35
2023-02-05T08:58:46.720Z,10.55
2023-02-05T09:01:16.032Z,6.45
2023-02-05T09:03:42.670Z,9.27
2023-02-05T09:06:13.631Z,4.95
2023-02-05T09:08:40.607Z,7.03
2023-02-05T09:11:08.232Z,6.20
2023-02-05T09:13:34.740Z,8.80
2023-02-05T09:16:01.356Z,11.70
2023-02-05T09:18:27.829Z,6.53
2023-02-05T09:20:54.506Z,4.75
2023-02-05T09:23:21.451Z,9.02
2023-02-05T09:25:47.961Z,9.40
2023-02-05T09:28:15.121Z,10.30
2023-02-05T09:30:44.948Z,10.38
2023-02-05T09:33:12.357Z,11.70
2023-02-05T09:35:39.152Z,7.00
2023-02-05T09:38:05.724Z,11.95
2023-02-05T09:40:59.184Z,17.17
2023-02-05T09:43:51.475Z,17.50
2023-02-05T09:46:42.185Z,15.45
2023-02-05T09:49:17.714Z,9.13
2023-02-05T09:51:51.614Z,6.72
2023-02-05T09:54:31.645Z,7.38
2023-02-05T09:57:04.790Z,9.73
2023-02-05T09:59:32.777Z,10.57
2023-02-05T10:02:02.955Z,12.27
2023-02-05T10:04:30.421Z,9.05
2023-02-05T10:07:14.758Z,7.20
2023-02-05T10:09:54.873Z,11.32
2023-02-05T10:12:37.006Z,9.63
2023-02-05T10:15:22.070Z,6.50
2023-02-05T10:18:03.653Z,4.88
2023-02-05T10:23:17.993Z,4.97
2023-02-05T10:26:04.065Z,9.30
2023-02-05T10:28:48.216Z,9.40
2023-02-05T10:31:38.383Z,7.38
2023-02-05T10:34:26.706Z,6.25
2023-02-05T10:36:54.164Z,13.63
2023-02-05T10:39:25.785Z,8.40
2023-02-05T10:42:11.623Z,7.43
2023-02-05T10:44:45.063Z,8.38
2023-02-05T10:47:50.883Z,7.40
2023-02-05T10:50:41.171Z,10.27
2023-02-05T10:53:07.692Z,8.10
2023-02-05T10:55:34.423Z,8.90
2023-02-05T10:58:09.750Z,9.18
2023-02-05T11:00:36.915Z,11.23
2023-02-05T11:03:05.434Z,10.70
2023-02-05T11:05:38.597Z,6.47
2023-02-05T11:08:05.324Z,13.07
2023-02-05T11:10:34.949Z,8.18
2023-02-05T11:13:22.015Z,11.40
2023-02-05T11:16:04.328Z,6.68
2023-02-05T11:18:38.189Z,9.27
2023-02-05T11:21:06.241Z,10.02
2023-02-05T11:23:39.551Z,7.57
2023-02-05T11:26:18.027Z,7.90
2023-02-05T11:28:45.115Z,5.15
2023-02-05T11:31:27.413Z,5.15
2023-02-05T11:34:15.472Z,9.55
2023-02-05T11:36:54.594Z,9.63
2023-02-05T11:39:34.094Z,5.57
2023-02-05T11:42:11.273Z,9.60
2023-02-05T11:44:48.365Z,6.40
2023-02-05T11:47:23.750Z,8.93
2023-02-05T11:49:51.813Z,5.63
2023-02-05T11:52:27.259Z,6.88
2023-02-05T11:54:54.256Z,8.77
2023-02-05T11:57:20.642Z,5.40
2023-02-05T12:00:09.466Z,11.23
2023-02-05T12:02:38.546Z,4.47
2023-02-05T12:05:28.959Z,15.00
2023-02-05T12:08:04.992Z,7.60
2023-02-05T12:10:40.687Z,9.93
2023-02-05T12:13:48.344Z,10.88
2023-02-05T12:16:34.993Z,6.28
2023-02-05T12:19:23.000Z,5.75
2023-02-05T12:22:10.416Z,6.50
2023-02-05T12:24:51.658Z,8.40
2023-02-05T12:27:50.649Z,7.55
2023-02-05T12:30:32.073Z,7.60
2023-02-05T12:33:07.522Z,8.95
2023-02-05T12:35:34.297Z,8.73
2023-02-05T12:38:31.533Z,4.88
2023-02-05T12:41:15.701Z,5.35
2023-02-05T12:43:46.706Z,8.48
2023-02-05T12:46:41.151Z,10.48
2023-02-05T12:49:26.434Z,7.40
2023-02-05T12:52:04.865Z,7.95
2023-02-05T12:55:03.981Z,5.88
2023-02-05T12:57:40.597Z,6.15
2023-02-05T13:00:14.573Z,10.75
2023-02-05T13:02:51.244Z,6.75
2023-02-05T13:05:36.861Z,11.13
2023-02-05T13:08:24.171Z,6.45
2023-02-05T13:10:57.273Z,8.40
2023-02-05T13:13:33.192Z,8.32
2023-02-05T13:16:21.501Z,4.88
2023-02-05T13:18:58.461Z,4.57
2023-02-05T13:21:44.158Z,6.72
2023-02-05T13:24:41.961Z,5.32
2023-02-05T13:27:41.628Z,5.28
2023-02-05T13:30:41.296Z,6.20
2023-02-05T13:33:08.618Z,4.95
2023-02-05T13:35:53.308Z,12.00
2023-02-05T13:38:45.903Z,7.30
2023-02-05T13:41:34.026Z,7.30
2023-02-05T13:44:38.177Z,8.98
2023-02-05T13:47:37.822Z,6.07
2023-02-05T13:50:35.096Z,6.18
2023-02-05T13:53:06.068Z,9.40
2023-02-05T13:55:55.900Z,5.72
2023-02-05T13:58:26.748Z,6.57
2023-02-05T14:00:55.979Z,6.82
2023-02-05T14:03:33.619Z,3.13
2023-02-05T14:06:00.270Z,12.88
2023-02-05T14:08:34.369Z,7.43
2023-02-05T14:11:03.938Z,5.03
2023-02-05T14:13:33.635Z,8.25
2023-02-05T14:16:24.801Z,6.80
2023-02-05T14:19:00.531Z,6.35
2023-02-05T14:21:30.127Z,7.13
2023-02-05T14:24:23.468Z,5.47
2023-02-05T14:27:00.433Z,4.85
2023-02-05T14:29:41.989Z,6.63
2023-02-05T14:32:29.446Z,8.25
2023-02-05T14:35:26.046Z,5.30
2023-02-05T14:37:56.856Z,9.40
2023-02-05T14:40:34.973Z,4.82
2023-02-05T14:43:26.638Z,7.60
2023-02-05T14:45:53.675Z,10.70
2023-02-05T14:48:33.669Z,7.28
2023-02-05T14:51:07.832Z,9.30
2023-02-05T14:53:37.222Z,10.35
2023-02-05T14:56:05.351Z,10.57
2023-02-05T14:58:40.707Z,8.18
2023-02-05T15:01:46.820Z,6.63
2023-02-05T15:04:24.087Z,8.88
2023-02-05T15:06:52.230Z,5.45
2023-02-05T15:09:26.176Z,10.70
2023-02-05T15:12:21.066Z,7.35
2023-02-05T15:14:47.462Z,7.47
2023-02-05T15:17:16.065Z,7.60
2023-02-05T15:19:55.617Z,4.70
2023-02-05T15:22:40.980Z,22.00
2023-02-05T15:25:26.618Z,7.70
2023-02-05T15:28:01.511Z,7.63
2023-02-05T15:30:39.246Z,6.95
2023-02-05T15:33:13.481Z,12.57
2023-02-05T15:35:42.944Z,9.23
2023-02-05T15:38:25.192Z,9.43
2023-02-05T15:40:53.071Z,9.35
2023-02-05T15:43:23.107Z,11.35
2023-02-05T15:45:59.214Z,9.40
2023-02-05T15:48:27.288Z,8.05
2023-02-05T15:51:04.944Z,7.72
2023-02-05T15:53:41.557Z,12.27
2023-02-05T15:56:14.178Z,9.55
2023-02-05T15:59:06.124Z,7.40
2023-02-05T16:01:36.746Z,9.52
2023-02-05T16:04:16.978Z,10.43
2023-02-05T16:06:43.533Z,9.30
2023-02-05T16:09:18.790Z,9.52
2023-02-05T16:11:46.441Z,8.65
2023-02-05T16:14:15.208Z,9.45
2023-02-05T16:17:26.797Z,16.40
2023-02-05T16:20:04.503Z,10.95
2023-02-05T16:22:45.604Z,10.88
2023-02-05T16:25:30.736Z,7.22
2023-02-05T16:27:59.985Z,12.02
2023-02-05T16:30:34.322Z,7.43
2023-02-05T16:33:03.452Z,16.23
2023-02-05T16:35:35.656Z,10.00
2023-02-05T16:38:03.496Z,12.15
2023-02-05T16:40:35.782Z,9.35
2023-02-05T16:43:27.289Z,7.85
2023-02-05T16:46:08.971Z,10.07
2023-02-05T16:48:52.621Z,12.80
2023-02-05T16:51:37.553Z,8.60
2023-02-05T16:54:29.886Z,16.15
2023-02-05T16:57:15.940Z,13.27
2023-02-05T16:59:57.070Z,10.82
2023-02-05T17:02:35.502Z,10.93
2023-02-05T17:05:05.847Z,10.35
2023-02-05T17:07:32.876Z,11.80
2023-02-05T17:10:19.020Z,10.35
2023-02-05T17:12:47.662Z,8.98
2023-02-05T17:15:14.058Z,12.88
2023-02-05T17:17:59.235Z,9.05
2023-02-05T17:20:28.219Z,8.95
2023-02-05T17:23:03.735Z,14.65
2023-02-05T17:25:38.697Z,9.90
2023-02-05T17:28:07.622Z,12.57
2023-02-05T17:30:34.813Z,9.23
2023-02-05T17:33:14.032Z,12.93
2023-02-05T17:35:40.437Z,12.25
2023-02-05T17:38:06.886Z,11.02
2023-02-05T17:40:33.569Z,16.83
2023-02-05T17:43:00.230Z,13.10
2023-02-05T17:45:31.331Z,12.27
2023-02-05T17:47:57.865Z,16.77
2023-02-05T17:50:24.314Z,14.63
2023-02-05T17:52:52.211Z,19.08
2023-02-05T17:55:20.616Z,20.35
2023-02-05T17:57:47.185Z,14.07
2023-02-05T18:00:19.871Z,20.88
2023-02-05T18:02:46.573Z,16.55
2023-02-05T18:05:13.213Z,17.75
2023-02-05T18:07:44.583Z,15.20
2023-02-05T18:12:39.557Z,12.15
2023-02-05T18:15:06.662Z,15.70
2023-02-05T18:17:33.222Z,13.05
2023-02-05T18:19:59.672Z,15.73
2023-02-05T18:22:26.363Z,17.75
2023-02-05T18:24:52.871Z,12.45
2023-02-05T18:27:20.022Z,15.43
2023-02-05T18:29:46.528Z,16.85
2023-02-05T18:32:12.958Z,15.20
2023-02-05T18:34:40.008Z,16.73
2023-02-05T18:37:06.467Z,15.88
2023-02-05T18:39:32.926Z,17.25
2023-02-05T18:41:59.406Z,16.67
2023-02-05T18:44:26.659Z,16.70
2023-02-05T18:46:54.061Z,15.25
2023-02-05T18:49:20.674Z,16.98
2023-02-05T18:51:47.103Z,13.43
2023-02-05T18:54:13.622Z,21.00
2023-02-05T18:56:40.238Z,17.60
2023-02-05T18:59:09.553Z,16.48
2023-02-05T19:01:38.405Z,11.93
2023-02-05T19:04:10.651Z,19.15
2023-02-05T19:06:37.300Z,14.70
2023-02-05T19:09:04.430Z,16.05
2023-02-05T19:11:31.539Z,14.82
2023-02-05T19:14:00.487Z,20.10
2023-02-05T19:16:27.660Z,12.30
2023-02-05T19:18:54.693Z,13.07
2023-02-05T19:21:22.479Z,15.07
2023-02-05T19:23:51.715Z,16.20
2023-02-05T19:26:21.771Z,15.73
2023-02-05T19:28:56.828Z,17.33
2023-02-05T19:31:25.939Z,18.15
2023-02-05T19:33:52.608Z,18.20
2023-02-05T19:36:19.973Z,18.35
2023-02-05T19:38:46.531Z,17.30
2023-02-05T19:41:15.771Z,21.20
2023-02-05T19:43:50.077Z,14.50
2023-02-05T19:46:20.829Z,14.90
2023-02-05T19:48:47.946Z,21.40
2023-02-05T19:51:15.835Z,24.50
2023-02-05T19:53:45.259Z,16.83
2023-02-05T19:56:15.178Z,28.15
2023-02-05T19:58:44.174Z,20.77
2023-02-05T20:01:24.304Z,22.73
2023-02-05T20:03:53.000Z,23.98
2023-02-05T20:06:23.795Z,28.35
2023-02-05T20:08:50.678Z,20.70
2023-02-05T20:11:18.598Z,17.08
2023-02-05T20:13:45.779Z,16.05
2023-02-05T20:16:18.828Z,24.33
2023-02-05T20:18:46.601Z,19.52
2023-02-05T20:21:20.443Z,20.08
2023-02-05T20:23:48.315Z,15.90
2023-02-05T20:26:18.898Z,26.27
2023-02-05T20:29:05.473Z,20.70
2023-02-05T20:31:35.006Z,17.85
2023-02-05T20:34:03.144Z,23.63
2023-02-05T20:36:31.139Z,16.08
2023-02-05T20:38:58.870Z,17.85
2023-02-05T20:41:25.294Z,18.42
2023-02-05T20:43:52.175Z,15.65
2023-02-05T20:46:18.987Z,15.85
2023-02-05T20:48:45.827Z,15.80
2023-02-05T20:51:14.393Z,19.50
2023-02-05T20:53:41.023Z,17.52
2023-02-05T20:56:11.349Z,16.48
2023-02-05T20:58:38.016Z,16.23
2023-02-05T21:01:13.897Z,18.08
2023-02-05T21:03:43.883Z,13.98
2023-02-05T21:06:11.366Z,18.17
2023-02-05T21:08:39.272Z,19.25
2023-02-05T21:11:06.502Z,15.98
2023-02-05T21:13:33.837Z,20.45
2023-02-05T21:16:00.947Z,20.83
2023-02-05T21:18:28.811Z,21.58
2023-02-05T21:20:55.728Z,18.23
2023-02-05T21:23:22.262Z,19.20
2023-02-05T21:25:48.720Z,15.43
2023-02-05T21:28:16.587Z,16.67
2023-02-05T21:30:44.681Z,18.50
2023-02-05T21:33:11.129Z,22.48
2023-02-05T21:35:38.980Z,20.52
2023-02-05T21:38:05.497Z,21.27
2023-02-05T21:40:32.082Z,19.73
2023-02-05T21:42:58.756Z,18.50
2023-02-05T21:45:25.619Z,19.42
2023-02-05T21:47:52.074Z,23.48
2023-02-05T21:50:18.543Z,21.17
2023-02-05T21:52:45.084Z,21.00
2023-02-05T21:55:11.805Z,23.65
2023-02-05T21:57:38.308Z,18.20
2023-02-05T22:00:05.137Z,16.90
2023-02-05T22:02:31.601Z,23.15
2023-02-05T22:04:58.157Z,21.83
2023-02-05T22:07:24.884Z,17.58
2023-02-05T22:09:51.324Z,18.85
2023-02-05T22:12:17.903Z,21.30
2023-02-05T22:14:44.576Z,18.25
2023-02-05T22:17:11.143Z,23.10
2023-02-05T22:19:37.590Z,21.77
2023-02-05T22:22:04.125Z,23.15
2023-02-05T22:24:30.733Z,19.73
2023-02-05T22:26:57.543Z,15.38
2023-02-05T22:29:24.027Z,25.25
2023-02-05T22:31:52.269Z,21.50
2023-02-05T22:34:18.996Z,18.88
2023-02-05T22:36:45.739Z,22.83
2023-02-05T22:39:12.498Z,29.98
2023-02-05T22:41:41.565Z,24.98
2023-02-05T22:44:09.501Z,27.13
2023-02-05T22:46:39.889Z,23.42
2023-02-05T22:49:06.844Z,22.98
2023-02-05T22:51:39.021Z,21.27
2023-02-05T22:54:07.529Z,19.75
2023-02-05T22:56:35.627Z,20.30
2023-02-05T22:59:03.523Z,20.40
2023-02-05T23:01:35.889Z,23.08
2023-02-05T23:04:06.143Z,21.13
2023-02-05T23:06:38.365Z,22.60
2023-02-05T23:09:11.276Z,21.13
2023-02-05T23:11:37.752Z,18.77
2023-02-05T23:14:05.944Z,21.85
2023-02-05T23:16:35.600Z,26.02
2023-02-05T23:19:05.878Z,23.13
2023-02-05T23:21:34.338Z,24.60
2023-02-05T23:24:01.372Z,26.30
2023-02-05T23:26:34.027Z,22.65
2023-02-05T23:29:01.214Z,25.23
2023-02-05T23:31:28.593Z,25.00
2023-02-05T23:33:55.565Z,27.10
2023-02-05T23:36:22.366Z,23.15
2023-02-05T23:38:49.148Z,27.95
2023-02-05T23:41:35.440Z,27.90
2023-02-05T23:44:22.438Z,24.30
2023-02-05T23:46:50.410Z,31.33
2023-02-05T23:49:21.667Z,27.20
2023-02-05T23:51:52.083Z,27.33
2023-02-05T23:54:18.727Z,26.15
2023-02-05T23:56:45.362Z,27.20
2023-02-05T23:59:13.095Z,23.70
